createdAt,value
2022-11-27T00:09:30.151Z,99.90
2022-11-27T00:19:31.775Z,99.90
2022-11-27T00:29:33.443Z,99.90
2022-11-27T00:39:35.144Z,99.90
2022-11-27T00:49:36.936Z,99.90
2022-11-27T00:59:38.545Z,99.90
2022-11-27T01:09:40.294Z,99.90
2022-11-27T01:19:41.929Z,99.90
2022-11-27T01:29:43.527Z,99.90
2022-11-27T01:39:45.155Z,99.90
2022-11-27T01:49:52.216Z,99.90
2022-11-27T01:59:57.000Z,99.90
2022-11-27T02:09:58.675Z,99.90
2022-11-27T02:20:27.307Z,99.90
2022-11-27T02:30:36.667Z,99.90
2022-11-27T02:40:59.000Z,99.90
2022-11-27T02:51:02.279Z,99.90
2022-11-27T03:01:06.799Z,99.90
2022-11-27T03:11:14.663Z,99.90
2022-11-27T03:21:37.744Z,99.90
2022-11-27T03:31:40.268Z,99.90
2022-11-27T03:42:06.720Z,99.90
2022-11-27T03:52:12.206Z,99.90
2022-11-27T04:02:15.235Z,99.90
2022-11-27T04:12:16.911Z,99.90
2022-11-27T04:22:19.015Z,99.90
2022-11-27T04:32:20.605Z,99.90
2022-11-27T04:42:22.332Z,99.90
2022-11-27T04:52:23.969Z,99.90
2022-11-27T05:02:25.783Z,99.90
2022-11-27T05:12:27.451Z,99.90
2022-11-27T05:42:33.243Z,99.90
2022-11-27T05:52:34.897Z,99.90
2022-11-27T06:02:36.584Z,99.90
2022-11-27T06:12:38.275Z,99.90
2022-11-27T06:22:39.929Z,99.90
2022-11-27T06:32:41.882Z,99.90
2022-11-27T06:42:43.524Z,99.90
2022-11-27T06:52:45.119Z,99.90
2022-11-27T07:02:46.727Z,99.90
2022-11-27T07:22:51.617Z,99.80
2022-11-27T07:32:53.215Z,99.70
2022-11-27T07:42:54.864Z,99.80
2022-11-27T07:52:56.468Z,99.60
2022-11-27T08:11:45.839Z,99.40
2022-11-27T08:31:49.731Z,99.40
2022-11-27T08:41:51.384Z,99.40
2022-11-27T08:51:53.016Z,99.20
2022-11-27T09:01:54.860Z,99.20
2022-11-27T09:11:56.495Z,99.10
2022-11-27T09:21:58.251Z,99.00
2022-11-27T09:31:59.932Z,98.90
2022-11-27T09:42:04.380Z,99.00
2022-11-27T09:52:38.218Z,98.80
2022-11-27T10:02:43.233Z,98.90
2022-11-27T10:13:29.559Z,99.00
2022-11-27T10:23:54.404Z,98.80
2022-11-27T10:34:20.194Z,98.80
2022-11-27T10:44:31.576Z,98.90
2022-11-27T10:54:38.537Z,98.70
2022-11-27T11:04:40.445Z,98.90
2022-11-27T11:14:51.831Z,99.20
2022-11-27T11:24:55.089Z,99.00
2022-11-27T11:35:01.095Z,98.90
2022-11-27T11:45:05.820Z,98.90
2022-11-27T11:55:13.181Z,99.00
2022-11-27T12:05:24.303Z,99.10
2022-11-27T12:15:28.843Z,99.40
2022-11-27T12:25:37.762Z,98.40
2022-11-27T12:35:52.257Z,98.50
2022-11-27T12:46:06.374Z,98.40
2022-11-27T12:56:24.565Z,98.20
2022-11-27T13:06:29.522Z,98.10
2022-11-27T13:16:48.653Z,98.40
2022-11-27T13:27:08.970Z,97.50
2022-11-27T13:37:33.240Z,97.40
2022-11-27T13:47:43.517Z,97.30
2022-11-27T13:57:52.903Z,97.30
2022-11-27T14:07:55.977Z,97.30
2022-11-27T14:18:17.858Z,97.40
2022-11-27T14:28:27.140Z,97.50
2022-11-27T14:38:29.951Z,97.50
2022-11-27T14:48:42.436Z,97.50
2022-11-27T14:58:51.235Z,97.70
2022-11-27T15:09:15.904Z,98.00
2022-11-27T15:19:27.213Z,97.90
2022-11-27T15:29:36.746Z,98.10
2022-11-27T15:39:51.563Z,98.40
2022-11-27T15:49:53.673Z,98.30
2022-11-27T15:59:55.331Z,98.40
2022-11-27T16:09:56.982Z,98.50
2022-11-27T16:19:58.815Z,98.60
2022-11-27T16:30:00.444Z,98.50
2022-11-27T16:40:02.148Z,98.50
2022-11-27T16:50:04.570Z,98.60
2022-11-27T17:00:07.054Z,98.60
2022-11-27T17:10:09.132Z,98.60
2022-11-27T17:20:11.235Z,98.60
2022-11-27T17:30:13.251Z,98.60
2022-11-27T17:40:14.916Z,98.60
2022-11-27T17:50:16.611Z,98.60
2022-11-27T18:00:18.696Z,98.80
2022-11-27T18:10:20.448Z,98.80
2022-11-27T18:20:22.347Z,98.60
2022-11-27T18:30:24.937Z,98.50
2022-11-27T18:40:26.596Z,98.50
2022-11-27T18:50:29.818Z,98.50
2022-11-27T19:00:31.639Z,98.50
2022-11-27T19:14:48.700Z,98.40
2022-11-27T19:24:50.306Z,98.30
2022-11-27T19:34:52.071Z,98.20
2022-11-27T19:44:55.842Z,98.10
2022-11-27T19:54:57.487Z,98.10
2022-11-27T20:04:59.128Z,98.00
2022-11-27T20:15:02.131Z,98.00
2022-11-27T20:25:19.085Z,98.00
2022-11-27T20:35:21.524Z,97.90
2022-11-27T20:45:23.193Z,98.00
2022-11-27T20:55:24.825Z,97.90
2022-11-27T21:05:26.425Z,97.90
2022-11-27T21:15:28.059Z,97.90
2022-11-27T21:25:29.840Z,97.90
2022-11-27T21:35:32.731Z,97.80
2022-11-27T21:45:37.444Z,97.80
2022-11-27T21:55:43.414Z,97.80
2022-11-27T22:15:47.443Z,97.70
2022-11-27T22:25:49.087Z,97.70
2022-11-27T22:45:52.847Z,97.60
2022-11-27T22:55:54.669Z,97.70
2022-11-27T23:05:56.388Z,98.00
2022-11-27T23:15:58.057Z,97.60
2022-11-27T23:26:05.231Z,97.70
2022-11-27T23:36:07.484Z,97.80
2022-11-27T23:46:12.224Z,97.50
2022-11-27T23:56:17.443Z,97.70
